Terminal Aerodrome Forecast
Issued by NWS Northern Indiana

Home | Current Version | Previous Version | Graphics & Text | Print | Product List | Glossary On
Versions: 1 2 3 4 5 6 7 8 9 10 11 12 13 14
000
FTUS43 KIWX 151736
TAFFWA
TAF
KFWA 151736Z 1518/1618 23008KT P6SM VCSH BKN040 BKN080
     FM160200 23006KT P6SM SCT080
     FM160600 00000KT 4SM BR FEW150
     FM161000 00000KT 2SM BR SCT090
     FM161200 VRB03KT P6SM BKN110=

USA.gov is the U.S. government's official web portal to all federal, state and local government web resources and services.